Time;durP1;ratioP1;P1;durP2;ratioP2;P2;SDS_P1;SDS_P2;PMS_P1;PMS_P2;Temp;Humidity;BMP_temperature;BMP_pressure;BME280_temperature;BME280_humidity;BME280_pressure;Samples;Min_cycle;Max_cycle;Signal;HPM_P1;HPM_P2
2022/04/18 00:01:52;;;;;;;;;;;5.20;92.00;;;4.61;66.75;97543.16;5047926;28;19924;-51
2022/04/18 00:04:18;;;;;;;;;;;5.20;92.40;;;4.43;67.64;97522.47;5048267;28;19920;-50
2022/04/18 00:06:44;;;;;;;;;;;5.20;92.80;;;4.47;67.91;97538.09;5049742;28;20024;-52
2022/04/18 00:09:10;;;;;;;;;;;5.10;92.90;;;4.40;68.96;97537.28;5050792;28;20400;-50
2022/04/18 00:11:35;;;;;;;;;;;5.00;93.30;;;4.36;69.69;97527.78;5054183;28;20017;-51
2022/04/18 00:14:01;;;;;;;;;;;5.00;93.50;;;4.33;70.90;97526.94;5052260;28;19924;-49
2022/04/18 00:16:27;;;;;;;;;;;5.00;94.00;;;4.31;70.66;97520.88;5052154;28;19973;-50
2022/04/18 00:18:53;;;;;;;;;;;5.00;94.00;;;4.30;71.91;97530.41;5052393;28;20336;-49
2022/04/18 00:21:19;;;;;;;;;;;4.90;94.40;;;4.27;71.39;97530.47;5054947;28;20373;-53
2022/04/18 00:23:45;;;;;;;;;;;5.00;94.30;;;4.25;70.88;97524.38;5069631;28;20671;-51
2022/04/18 00:26:11;;;;;;;;;;;4.90;94.20;;;4.24;70.68;97529.63;5055972;28;19924;-49
2022/04/18 00:28:37;;;;;;;;;;;4.90;94.10;;;4.20;70.43;97524.44;5054551;28;19916;-48
2022/04/18 00:31:02;;;;;;;;;;;4.90;94.10;;;4.18;71.39;97525.31;5055022;28;20415;-51
2022/04/18 00:33:28;;;;;;;;;;;4.80;94.50;;;4.01;72.04;97497.63;5053749;28;19924;-48
2022/04/18 00:35:55;;;;;;;;;;;4.80;94.90;;;4.12;73.63;97521.03;5050934;28;19963;-50
2022/04/18 00:38:21;;;;;;;;;;;4.80;95.40;;;3.97;74.71;97509.00;5054627;28;19924;-50
2022/04/18 00:40:47;;;;;;;;;;;4.80;95.90;;;4.05;75.45;97518.50;5055570;28;19925;-52
2022/04/18 00:43:13;;;;;;;;;;;4.70;96.30;;;4.00;76.54;97521.13;5054537;28;21343;-51
2022/04/18 00:45:39;;;;;;;;;;;4.60;96.70;;;3.90;76.98;97511.69;5052022;28;20015;-48
2022/04/18 00:48:05;;;;;;;;;;;4.60;97.00;;;3.88;77.29;97501.25;5054392;28;20566;-52
2022/04/18 00:50:33;;;;;;;;;;;4.50;97.30;;;3.84;77.71;97504.78;5055095;28;20086;-51
2022/04/18 00:52:58;;;;;;;;;;;4.50;97.60;;;3.78;78.61;97504.81;5048861;28;19924;-50
2022/04/18 00:55:26;;;;;;;;;;;4.40;98.10;;;3.74;78.68;97506.56;5072377;28;19927;-51
2022/04/18 00:57:53;;;;;;;;;;;4.40;98.30;;;3.73;78.69;97506.59;5054298;28;19991;-53
2022/04/18 01:00:19;;;;;;;;;;;4.30;98.40;;;3.67;78.78;97502.28;5052579;28;20036;-50
2022/04/18 01:02:44;;;;;;;;;;;4.30;98.70;;;3.67;78.78;97501.44;5056440;28;19925;-52
2022/04/18 01:05:10;;;;;;;;;;;4.30;98.70;;;3.63;78.61;97498.84;5052650;28;19951;-52
2022/04/18 01:07:36;;;;;;;;;;;4.30;98.90;;;3.61;78.62;97500.59;5051619;28;19920;-51
2022/04/18 01:10:07;;;;;;;;;;;4.30;99.00;;;3.57;78.63;97496.28;5053286;28;20019;-52
2022/04/18 01:12:33;;;;;;;;;;;4.30;99.10;;;3.54;78.77;97498.06;5054965;28;20044;-51
2022/04/18 01:14:58;;;;;;;;;;;4.20;99.30;;;3.52;79.24;97495.44;5050574;28;19924;-53
2022/04/18 01:17:25;;;;;;;;;;;4.20;99.80;;;3.48;79.78;97490.25;5052286;28;19928;-52
2022/04/18 01:19:51;;;;;;;;;;;4.20;99.90;;;3.32;80.46;97466.03;5053005;28;19974;-53
2022/04/18 01:22:18;;;;;;;;;;;4.10;99.90;;;3.40;80.22;97491.19;5055191;28;19917;-50
2022/04/18 01:30:13;;;;;;;;;;;4.10;99.90;;;3.34;81.29;97472.97;5051585;28;19927;-53
2022/04/18 01:32:39;;;;;;;;;;;4.10;99.90;;;3.35;81.56;97479.06;5052472;28;19913;-53
2022/04/18 01:35:05;;;;;;;;;;;4.00;99.90;;;3.31;81.70;97469.53;5052703;28;19989;-51
2022/04/18 01:37:30;;;;;;;;;;;4.00;99.90;;;3.28;82.28;97470.41;5053036;28;19924;-52
2022/04/18 01:39:56;;;;;;;;;;;4.00;99.90;;;3.29;82.13;97461.72;5051235;28;19971;-53
2022/04/18 01:42:22;;;;;;;;;;;4.00;99.90;;;3.17;82.85;97448.78;5053288;28;19926;-51
2022/04/18 01:44:48;;;;;;;;;;;4.00;99.90;;;3.22;83.19;97463.50;5049774;28;19924;-51
2022/04/18 01:47:14;;;;;;;;;;;3.90;99.90;;;3.20;83.37;97467.84;5047572;28;20756;-50
2022/04/18 01:49:39;;;;;;;;;;;3.90;99.90;;;3.17;83.47;97465.25;5049133;28;19929;-54
2022/04/18 01:52:05;;;;;;;;;;;3.80;99.90;;;3.14;83.18;97462.69;5054989;28;19954;-49
2022/04/18 01:54:30;;;;;;;;;;;3.80;99.90;;;3.10;83.41;97465.31;5055248;28;19987;-50
2022/04/18 01:56:57;;;;;;;;;;;3.80;99.90;;;3.04;84.17;97464.47;5053704;28;19916;-52
2022/04/18 01:59:22;;;;;;;;;;;3.80;99.90;;;3.00;84.21;97472.34;5054100;22;19947;-63
2022/04/18 02:05:10;;;;;;;;;;;3.60;99.90;;;2.87;83.19;97463.69;5026784;28;20490;-63
2022/04/18 02:07:36;;;;;;;;;;;3.60;99.90;;;2.81;83.15;97455.94;5035427;28;19924;-64
2022/04/18 02:10:03;;;;;;;;;;;3.50;99.90;;;2.83;83.18;97468.06;5029272;28;20160;-63
2022/04/18 02:12:29;;;;;;;;;;;3.50;99.90;;;2.77;83.07;97455.09;5035641;28;20372;-64
2022/04/18 02:14:55;;;;;;;;;;;3.50;99.90;;;2.77;82.70;97452.47;5014473;28;20391;-63
2022/04/18 02:17:20;;;;;;;;;;;3.50;99.90;;;2.80;81.98;97454.19;5032482;28;19924;-63
2022/04/18 02:19:46;;;;;;;;;;;3.50;99.90;;;2.79;81.96;97458.53;5033787;28;19917;-63
2022/04/18 02:22:15;;;;;;;;;;;3.50;99.90;;;2.76;83.16;97445.53;5012637;28;20009;-64
2022/04/18 02:24:41;;;;;;;;;;;3.50;99.90;;;2.74;83.51;97444.66;5033468;28;19986;-63
2022/04/18 02:27:06;;;;;;;;;;;3.50;99.90;;;2.71;84.28;97449.91;5013645;28;20193;-64
2022/04/18 02:29:33;;;;;;;;;;;3.40;99.90;;;2.68;84.98;97444.72;5029854;28;20418;-64
2022/04/18 02:34:43;;;;;;;;;;;3.40;99.90;;;2.65;86.17;97439.50;5030483;28;19963;-64
2022/04/18 02:37:09;;;;;;;;;;;3.40;99.90;;;2.60;86.68;97430.84;5029558;28;19925;-64
2022/04/18 02:39:35;;;;;;;;;;;3.40;99.90;;;2.62;86.68;97430.00;5031013;28;19931;-64
2022/04/18 02:42:01;;;;;;;;;;;3.40;99.90;;;2.52;86.80;97410.06;5029886;28;19924;-64
2022/04/18 02:44:26;;;;;;;;;;;3.30;99.90;;;2.58;87.23;97428.25;5034078;28;19932;-64
2022/04/18 02:46:52;;;;;;;;;;;3.30;99.90;;;2.58;87.76;97437.81;5031530;28;20041;-64
2022/04/18 02:49:17;;;;;;;;;;;3.30;99.90;;;2.54;88.22;97423.09;5028296;28;19920;-64
2022/04/18 02:51:43;;;;;;;;;;;3.30;99.90;;;2.47;88.47;97419.63;5027592;28;19979;-64
2022/04/18 02:54:08;;;;;;;;;;;3.20;99.90;;;2.51;88.18;97426.56;5028057;28;19921;-64
2022/04/18 02:56:34;;;;;;;;;;;3.30;99.90;;;2.45;88.34;97414.44;5026357;28;20211;-64
2022/04/18 02:59:00;;;;;;;;;;;3.20;99.90;;;2.52;88.23;97425.69;5011424;28;19967;-64
2022/04/18 03:01:25;;;;;;;;;;;3.20;99.90;;;2.49;88.17;97425.69;5012882;28;19927;-64
2022/04/18 03:03:51;;;;;;;;;;;3.30;99.90;;;2.50;88.27;97422.22;5031968;28;19972;-65
2022/04/18 03:06:17;;;;;;;;;;;3.20;99.90;;;2.50;88.16;97416.16;5034016;28;19927;-64
2022/04/18 03:08:42;;;;;;;;;;;3.20;99.90;;;2.49;88.55;97415.28;5031749;28;19963;-64
2022/04/18 03:11:09;;;;;;;;;;;3.20;99.90;;;2.47;88.15;97415.28;5028611;28;19925;-64
2022/04/18 03:13:37;;;;;;;;;;;3.20;99.90;;;2.44;88.21;97411.84;5011936;28;20472;-64
2022/04/18 03:16:04;;;;;;;;;;;3.20;99.90;;;2.40;88.65;97402.31;5029203;28;19986;-64
2022/04/18 03:18:30;;;;;;;;;;;3.20;99.90;;;2.36;88.70;97400.59;5014242;28;22417;-64
2022/04/18 03:20:57;;;;;;;;;;;3.10;99.90;;;2.36;89.16;97405.81;5029726;28;21018;-65
2022/04/18 03:23:22;;;;;;;;;;;3.10;99.90;;;2.30;88.92;97393.69;5029293;28;19921;-64
2022/04/18 03:25:48;;;;;;;;;;;3.10;99.90;;;2.35;88.38;97407.56;5030546;28;20443;-65
2022/04/18 03:28:14;;;;;;;;;;;3.00;99.90;;;2.32;88.19;97386.75;5033053;28;19964;-64
2022/04/18 03:30:39;;;;;;;;;;;3.10;99.90;;;2.37;87.81;97408.41;5028790;28;19920;-64
2022/04/18 03:33:05;;;;;;;;;;;3.00;99.90;;;2.34;88.01;97403.22;5028865;28;19960;-64
2022/04/18 03:35:31;;;;;;;;;;;3.00;99.90;;;2.32;88.35;97407.56;5031770;28;19924;-64
2022/04/18 03:40:44;;;;;;;;;;;3.00;99.90;;;2.33;89.50;97403.22;5030697;28;20050;-65
2022/04/18 03:43:09;;;;;;;;;;;3.00;99.90;;;2.31;90.32;97390.19;5028808;28;20329;-64
2022/04/18 03:45:35;;;;;;;;;;;3.10;99.90;;;2.33;90.32;97396.25;5008847;28;20039;-65
2022/04/18 03:48:01;;;;;;;;;;;3.10;99.90;;;2.34;90.70;97398.00;5031124;28;19932;-65
2022/04/18 03:50:26;;;;;;;;;;;3.10;99.90;;;2.34;91.11;97386.75;5033517;28;19928;-64
2022/04/18 03:52:52;;;;;;;;;;;3.10;99.90;;;2.31;91.34;97392.81;5032706;28;20406;-65
2022/04/18 03:55:18;;;;;;;;;;;3.10;99.90;;;2.20;91.74;97379.84;5033620;28;20388;-64
2022/04/18 03:57:44;;;;;;;;;;;3.10;99.90;;;2.26;92.24;97395.44;5036902;28;19917;-64
2022/04/18 04:00:10;;;;;;;;;;;3.10;99.90;;;2.23;92.47;97390.25;5037806;28;19928;-64
2022/04/18 04:02:36;;;;;;;;;;;3.00;99.90;;;2.16;92.42;97385.94;5020686;28;19921;-65
2022/04/18 04:05:02;;;;;;;;;;;3.00;99.90;;;2.21;92.43;97399.81;5030167;28;19978;-65
2022/04/18 04:07:28;;;;;;;;;;;3.00;99.90;;;2.16;92.69;97393.75;5035628;28;19928;-66
2022/04/18 04:09:54;;;;;;;;;;;2.90;99.90;;;2.12;92.73;97388.53;5031350;28;19972;-64
2022/04/18 04:12:23;;;;;;;;;;;2.90;99.90;;;2.08;92.97;97391.19;5035000;28;19947;-64
2022/04/18 04:14:53;;;;;;;;;;;2.90;99.90;;;2.07;93.31;97392.03;5030427;28;19965;-64
2022/04/18 04:17:18;;;;;;;;;;;2.80;99.90;;;2.05;93.66;97385.13;5031509;28;20066;-65
2022/04/18 04:19:44;;;;;;;;;;;2.80;99.90;;;1.94;93.54;97379.94;5033905;28;19921;-64
2022/04/18 04:22:12;;;;;;;;;;;2.80;99.90;;;1.96;93.84;97383.41;5035688;28;19920;-64
2022/04/18 04:24:38;;;;;;;;;;;2.70;99.90;;;1.98;94.05;97393.81;5032886;28;19982;-64
2022/04/18 04:27:04;;;;;;;;;;;2.70;99.90;;;1.96;93.70;97390.34;5035688;28;19925;-64
2022/04/18 04:29:30;;;;;;;;;;;2.70;99.90;;;1.95;93.26;97384.25;5031630;28;19924;-64
2022/04/18 04:31:55;;;;;;;;;;;2.60;99.90;;;1.75;93.12;97347.06;5033881;28;20347;-64
2022/04/18 04:34:21;;;;;;;;;;;2.70;99.90;;;1.81;92.86;97360.03;5038137;28;19959;-64
2022/04/18 04:36:47;;;;;;;;;;;2.70;99.90;;;1.96;92.70;97385.16;5036616;28;19917;-64
2022/04/18 04:39:12;;;;;;;;;;;2.70;99.90;;;1.75;93.21;97353.13;5034027;28;20538;-64
2022/04/18 04:41:38;;;;;;;;;;;2.70;99.90;;;1.95;94.04;97378.22;5034256;28;20035;-64
2022/04/18 04:44:07;;;;;;;;;;;2.70;99.90;;;1.94;93.98;97376.47;5035302;28;19931;-63
2022/04/18 04:46:34;;;;;;;;;;;2.70;99.90;;;1.96;93.80;97380.81;5030441;28;19932;-64
2022/04/18 04:48:59;;;;;;;;;;;2.70;99.90;;;1.97;93.84;97376.47;5030793;28;19947;-63
2022/04/18 04:51:25;;;;;;;;;;;2.70;99.90;;;1.99;93.91;97380.81;5036201;28;20355;-63
2022/04/18 04:53:50;;;;;;;;;;;2.70;99.90;;;1.99;94.26;97372.13;5028828;28;19931;-63
2022/04/18 04:56:21;;;;;;;;;;;2.70;99.90;;;2.06;93.94;97374.72;5027338;28;19967;-63
2022/04/18 04:58:47;;;;;;;;;;;2.80;99.90;;;2.15;93.33;97373.78;5033935;28;19924;-63
2022/04/18 05:01:12;;;;;;;;;;;2.90;99.90;;;2.26;92.39;97368.53;5036609;28;19925;-63
2022/04/18 05:03:38;;;;;;;;;;;2.90;99.90;;;2.35;91.41;97378.94;5033223;28;19921;-63
2022/04/18 05:06:04;;;;;;;;;;;3.00;99.90;;;2.46;90.39;97381.47;5029559;28;19920;-63
2022/04/18 05:08:29;;;;;;;;;;;3.10;99.90;;;2.56;90.32;97374.47;5018604;28;20784;-63
2022/04/18 05:10:59;;;;;;;;;;;3.20;99.90;;;2.62;89.33;97371.81;5030286;28;19920;-63
2022/04/18 05:13:25;;;;;;;;;;;3.30;99.90;;;2.66;88.00;97369.19;5036546;28;19983;-63
2022/04/18 05:15:51;;;;;;;;;;;3.40;99.90;;;2.70;86.88;97349.22;5031563;28;19929;-63
2022/04/18 05:18:16;;;;;;;;;;;3.50;99.90;;;2.88;86.48;97365.59;5035645;28;20677;-63
2022/04/18 05:20:42;;;;;;;;;;;3.60;99.90;;;2.99;86.82;97382.00;5002429;28;19924;-63
2022/04/18 05:23:07;;;;;;;;;;;3.60;99.90;;;3.05;86.73;97379.34;5035425;28;20228;-63
2022/04/18 05:25:33;;;;;;;;;;;3.70;99.90;;;3.13;87.13;97374.97;5036562;28;19921;-63
2022/04/18 05:27:59;;;;;;;;;;;3.80;99.90;;;3.21;86.32;97385.31;5034883;28;19955;-63
2022/04/18 05:30:24;;;;;;;;;;;3.90;99.90;;;3.27;86.85;97384.38;5032234;28;19921;-63
2022/04/18 05:32:50;;;;;;;;;;;3.90;99.90;;;3.35;86.69;97382.59;5029777;28;19936;-63
2022/04/18 05:35:15;;;;;;;;;;;4.00;99.90;;;3.43;86.52;97383.41;5034121;28;19964;-63
2022/04/18 05:37:41;;;;;;;;;;;4.10;99.90;;;3.52;85.57;97388.53;5032604;28;20064;-62
2022/04/18 05:40:08;;;;;;;;;;;4.20;99.90;;;3.62;84.71;97390.19;5033280;28;19925;-63
2022/04/18 05:42:35;;;;;;;;;;;4.30;99.90;;;3.73;83.79;97386.59;5035938;28;20071;-63
2022/04/18 05:45:01;;;;;;;;;;;4.40;99.90;;;3.81;83.76;97390.00;5020001;28;19928;-63
2022/04/18 05:47:26;;;;;;;;;;;4.50;99.90;;;3.92;83.31;97395.97;5029031;28;19965;-62
2022/04/18 05:49:52;;;;;;;;;;;4.60;99.90;;;3.85;82.66;97376.03;5035074;28;19968;-63
2022/04/18 05:52:20;;;;;;;;;;;4.70;99.90;;;4.05;80.39;97385.38;5034106;28;19917;-63
2022/04/18 05:54:46;;;;;;;;;;;4.80;99.90;;;4.18;77.67;97395.69;5032983;28;19974;-62
2022/04/18 05:57:11;;;;;;;;;;;4.90;99.90;;;4.29;76.53;97392.94;5012418;28;20222;-62
2022/04/18 05:59:37;;;;;;;;;;;5.00;99.90;;;4.35;76.01;97385.03;5036589;28;19967;-63
2022/04/18 06:02:03;;;;;;;;;;;5.10;99.90;;;4.53;73.42;97396.97;5035031;28;19962;-63
2022/04/18 06:04:28;;;;;;;;;;;5.20;99.90;;;4.62;71.95;97396.00;5033690;28;19932;-63
2022/04/18 06:06:54;;;;;;;;;;;5.30;99.90;;;4.73;71.51;97403.69;5015012;28;20312;-62
2022/04/18 06:09:19;;;;;;;;;;;5.40;99.90;;;4.64;70.52;97369.88;5013794;28;20452;-62
2022/04/18 06:11:45;;;;;;;;;;;5.50;99.90;;;4.89;70.31;97397.38;5034657;28;19972;-62
2022/04/18 06:14:11;;;;;;;;;;;5.60;99.90;;;4.91;70.57;97386.91;5032944;28;19920;-62
2022/04/18 06:16:36;;;;;;;;;;;5.70;99.90;;;4.87;69.93;97364.31;5030261;28;19979;-63
2022/04/18 06:19:02;;;;;;;;;;;5.70;99.90;;;4.94;68.09;97361.56;5030801;28;20449;-62
2022/04/18 06:21:27;;;;;;;;;;;5.80;99.90;;;5.20;67.02;97389.06;5033473;28;19921;-62
2022/04/18 06:23:54;;;;;;;;;;;5.90;99.90;;;5.32;66.03;97386.25;5027409;28;19917;-62
2022/04/18 06:26:20;;;;;;;;;;;6.00;99.90;;;5.42;65.82;97391.31;5032924;28;19924;-62
2022/04/18 06:28:46;;;;;;;;;;;6.10;99.90;;;5.50;65.73;97384.22;5029849;28;19925;-62
2022/04/18 06:31:11;;;;;;;;;;;6.20;99.90;;;5.52;65.85;97372.84;5030015;28;20351;-62
2022/04/18 06:33:37;;;;;;;;;;;6.30;99.90;;;5.65;65.13;97385.72;5033350;28;20326;-62
2022/04/18 06:36:03;;;;;;;;;;;6.40;99.90;;;5.65;64.81;97370.91;5029796;28;19979;-60
2022/04/18 06:38:29;;;;;;;;;;;6.40;99.90;;;5.78;64.47;97378.50;5026803;28;19931;-59
2022/04/18 06:40:56;;;;;;;;;;;6.50;99.90;;;5.87;62.89;97373.97;5013557;28;19924;-59
2022/04/18 06:43:22;;;;;;;;;;;6.50;99.90;;;5.91;62.57;97374.78;5030204;28;19921;-59
2022/04/18 06:45:48;;;;;;;;;;;6.60;99.90;;;5.92;62.41;97385.22;5030457;28;20786;-60
2022/04/18 06:48:14;;;;;;;;;;;6.60;99.90;;;5.97;62.31;97369.44;5031037;28;19964;-59
2022/04/18 06:50:39;;;;;;;;;;;6.70;99.90;;;6.08;62.83;97377.09;5030133;28;20032;-59
2022/04/18 06:53:05;;;;;;;;;;;6.80;99.90;;;6.13;61.46;97367.41;5032512;28;19920;-59
2022/04/18 06:56:58;;;;;;;;;;;6.90;99.80;;;6.26;61.49;97370.63;5030757;28;20391;-59
2022/04/18 06:58:16;;;;;;;;;;;7.00;99.60;;;6.34;61.27;97375.75;5029454;28;20316;-59
2022/04/18 07:00:42;;;;;;;;;;;7.10;99.60;;;6.45;61.52;97377.22;5029567;28;20409;-60
2022/04/18 07:03:07;;;;;;;;;;;7.10;99.50;;;6.52;60.40;97369.25;5033088;28;19948;-60
2022/04/18 07:05:33;;;;;;;;;;;7.20;99.10;;;6.70;59.67;97376.69;5035132;28;19925;-60
2022/04/18 07:07:59;;;;;;;;;;;7.40;98.70;;;6.78;59.10;97376.53;5033843;28;19925;-60
2022/04/18 07:10:24;;;;;;;;;;;7.50;98.40;;;6.90;58.43;97376.25;5030614;28;20432;-60
2022/04/18 07:12:50;;;;;;;;;;;7.50;98.10;;;7.05;57.68;97373.28;5033979;28;20015;-60
2022/04/18 07:15:16;;;;;;;;;;;7.70;97.70;;;7.16;58.14;97374.78;5030112;28;19921;-60
2022/04/18 07:17:41;;;;;;;;;;;7.80;97.80;;;7.26;58.55;97378.91;5029948;28;20731;-60
2022/04/18 07:20:07;;;;;;;;;;;7.90;98.00;;;7.31;57.13;97369.19;5030815;28;19924;-60
2022/04/18 07:22:39;;;;;;;;;;;8.00;97.20;;;7.46;57.82;97381.06;5030209;28;19956;-60
2022/04/18 07:25:06;;;;;;;;;;;8.10;97.50;;;7.57;57.15;97378.16;5032143;28;19947;-60
2022/04/18 07:27:31;;;;;;;;;;;8.20;97.20;;;7.65;56.34;97378.84;5033804;28;20144;-60
2022/04/18 07:29:57;;;;;;;;;;;8.30;96.80;;;7.76;56.34;97379.41;5016263;28;19982;-60
2022/04/18 07:32:23;;;;;;;;;;;8.40;96.70;;;7.90;55.54;97383.47;5031866;28;19917;-61
2022/04/18 07:34:48;;;;;;;;;;;8.50;96.60;;;8.08;55.58;97382.94;5031644;28;20387;-60
2022/04/18 07:37:14;;;;;;;;;;;8.60;96.30;;;8.31;54.28;97384.94;5029632;28;20411;-61
2022/04/18 07:39:40;;;;;;;;;;;8.90;95.60;;;8.45;53.07;97381.94;5014564;28;19923;-61
2022/04/18 07:42:05;;;;;;;;;;;9.00;95.20;;;8.59;52.85;97378.91;5030951;28;20242;-60
2022/04/18 07:44:31;;;;;;;;;;;9.10;94.30;;;8.74;51.79;97385.47;5033206;28;20387;-60
2022/04/18 07:46:58;;;;;;;;;;;9.20;94.00;;;8.82;51.48;97372.97;5029969;28;20006;-60
2022/04/18 07:49:24;;;;;;;;;;;9.40;93.80;;;8.93;51.35;97385.81;5030429;28;19928;-61
2022/04/18 07:51:50;;;;;;;;;;;9.50;93.50;;;9.03;50.02;97381.13;5031786;28;19986;-62
2022/04/18 07:54:17;;;;;;;;;;;9.60;92.60;;;9.10;49.31;97382.66;5036880;28;20380;-61
2022/04/18 07:56:43;;;;;;;;;;;9.60;92.00;;;9.25;49.99;97386.56;5031679;28;19932;-61
2022/04/18 07:59:10;;;;;;;;;;;9.70;92.20;;;9.40;49.79;97393.09;5034090;28;19920;-61
2022/04/18 08:01:36;;;;;;;;;;;9.90;92.30;;;9.53;48.74;97383.91;5027610;28;20436;-61
2022/04/18 08:04:02;;;;;;;;;;;10.00;91.70;;;9.65;48.67;97386.13;5025427;28;19925;-61
2022/04/18 08:06:29;;;;;;;;;;;10.10;91.40;;;9.77;48.64;97392.75;5032239;28;19966;-61
2022/04/18 08:11:25;;;;;;;;;;;10.40;90.50;;;9.90;47.77;97380.88;5009034;28;19925;-42
2022/04/18 08:13:51;;;;;;;;;;;10.40;90.40;;;10.08;46.87;97387.28;5013840;28;19917;-40
2022/04/18 08:16:17;;;;;;;;;;;10.50;90.10;;;10.22;46.29;97386.81;5013920;28;19979;-40
2022/04/18 08:18:46;;;;;;;;;;;10.60;89.10;;;10.23;46.79;97387.66;5015521;28;19925;-43
2022/04/18 08:21:17;;;;;;;;;;;10.70;89.00;;;10.26;47.14;97392.81;5013286;28;19925;-45
2022/04/18 08:23:48;;;;;;;;;;;10.80;89.40;;;10.41;47.49;97384.41;5012217;28;19921;-41
2022/04/18 08:26:14;;;;;;;;;;;10.80;89.60;;;10.47;47.79;97380.69;5013830;28;20254;-43
2022/04/18 08:28:40;;;;;;;;;;;10.90;90.20;;;10.47;47.52;97376.25;5015291;28;19921;-42
2022/04/18 08:31:07;;;;;;;;;;;11.00;89.80;;;10.55;46.85;97378.63;5010075;28;20376;-42
2022/04/18 08:33:33;;;;;;;;;;;11.00;88.90;;;10.73;48.06;97387.63;5010356;28;19932;-42
2022/04/18 08:35:59;;;;;;;;;;;11.20;89.70;;;10.92;46.55;97393.03;4991750;28;20308;-42
2022/04/18 08:38:26;;;;;;;;;;;11.30;87.90;;;10.97;45.57;97390.25;4997478;28;19928;-42
2022/04/18 08:40:55;;;;;;;;;;;11.40;86.90;;;11.04;44.81;97394.38;5015588;28;19925;-43
2022/04/18 08:43:21;;;;;;;;;;;11.40;85.70;;;10.95;45.85;97397.38;5008393;28;19941;-42
2022/04/18 08:45:47;;;;;;;;;;;11.50;85.90;;;10.95;45.78;97392.09;5011785;28;19972;-41
2022/04/18 08:53:42;;;;;;;;;;;11.50;86.60;;;11.08;45.69;97394.16;5013756;28;20506;-43
2022/04/18 08:56:08;;;;;;;;;;;11.60;85.60;;;11.18;45.34;97383.25;5015887;28;19929;-42
2022/04/18 08:58:34;;;;;;;;;;;11.60;85.80;;;11.19;45.19;97387.63;5015313;28;19956;-43
2022/04/18 09:01:01;;;;;;;;;;;11.70;83.90;;;11.23;45.97;97394.47;5018711;28;19960;-44
2022/04/18 09:03:26;;;;;;;;;;;11.70;84.50;;;11.31;44.69;97396.84;5002400;28;19921;-42
2022/04/18 09:06:10;;;;;;;;;;;11.80;83.60;;;11.42;45.24;97382.25;5014543;28;20400;-43
2022/04/18 09:08:43;;;;;;;;;;;11.80;84.60;;;11.49;43.46;97385.53;5014496;28;19956;-44
2022/04/18 09:11:09;;;;;;;;;;;11.90;81.60;;;11.53;44.61;97376.53;5014274;28;20377;-42
2022/04/18 09:13:42;;;;;;;;;;;12.00;83.50;;;11.54;44.05;97369.47;5016817;28;19925;-44
2022/04/18 09:16:14;;;;;;;;;;;12.00;82.10;;;11.54;43.53;97365.06;4997570;28;19920;-42
2022/04/18 09:18:42;;;;;;;;;;;12.00;80.60;;;11.62;44.10;97372.66;5010500;28;20222;-42
2022/04/18 09:21:08;;;;;;;;;;;12.00;82.00;;;11.71;44.65;97369.63;5010126;28;20020;-42
2022/04/18 09:23:34;;;;;;;;;;;12.10;82.90;;;11.71;42.55;97372.28;5018075;28;20331;-42
2022/04/18 09:26:02;;;;;;;;;;;12.20;79.50;;;11.71;42.74;97372.28;5009127;28;19921;-42
2022/04/18 09:28:33;;;;;;;;;;;12.20;79.80;;;11.73;42.00;97366.94;4992509;28;20005;-43
2022/04/18 09:31:07;;;;;;;;;;;12.20;78.20;;;11.76;42.23;97365.03;5010590;28;20385;-43
2022/04/18 09:33:43;;;;;;;;;;;12.20;77.90;;;11.69;41.44;97368.84;5009653;28;19917;-43
2022/04/18 09:36:15;;;;;;;;;;;12.20;76.30;;;11.76;42.45;97358.91;5014822;28;20440;-44
2022/04/18 09:38:48;;;;;;;;;;;12.20;78.10;;;11.93;40.98;97358.19;5016029;28;19925;-42
2022/04/18 09:41:15;;;;;;;;;;;12.30;77.80;;;11.93;42.02;97358.19;4998241;28;19925;-43
2022/04/18 09:43:46;;;;;;;;;;;12.30;77.20;;;12.04;39.47;97366.50;5011512;28;20042;-41
2022/04/18 09:46:12;;;;;;;;;;;12.40;73.20;;;12.06;39.98;97351.47;5010569;28;19917;-42
2022/04/18 09:48:40;;;;;;;;;;;12.50;73.20;;;12.06;39.83;97351.47;5012183;28;20380;-41
2022/04/18 09:51:08;;;;;;;;;;;12.50;73.30;;;12.17;41.55;97351.84;4996348;28;19947;-41
2022/04/18 09:53:33;;;;;;;;;;;12.60;75.70;;;12.33;40.56;97353.81;5016583;28;19939;-41
2022/04/18 09:55:59;;;;;;;;;;;12.70;74.60;;;12.37;38.95;97350.94;4999521;28;20376;-41
2022/04/18 09:58:25;;;;;;;;;;;12.80;71.50;;;12.38;40.90;97347.41;5018229;28;19943;-41
2022/04/18 10:00:51;;;;;;;;;;;12.80;74.80;;;12.43;40.79;97341.03;5017520;28;19925;-41
2022/04/18 10:03:18;;;;;;;;;;;12.90;75.30;;;12.46;40.03;97344.41;5014731;28;20386;-41
2022/04/18 10:05:45;;;;;;;;;;;12.90;73.90;;;12.43;39.68;97344.53;4995689;28;20732;-41
2022/04/18 10:08:11;;;;;;;;;;;12.90;72.30;;;12.47;41.01;97345.25;5018290;28;19916;-41
2022/04/18 10:10:40;;;;;;;;;;;12.90;74.20;;;12.54;41.04;97341.38;5015208;28;19929;-43
2022/04/18 10:13:07;;;;;;;;;;;13.00;74.40;;;12.78;38.44;97350.00;5008649;28;19927;-41
2022/04/18 10:15:38;;;;;;;;;;;13.10;72.50;;;12.67;39.30;97339.91;5013597;28;20300;-41
2022/04/18 10:18:05;;;;;;;;;;;13.10;70.30;;;12.66;39.89;97335.53;5012006;28;19932;-41
2022/04/18 10:20:41;;;;;;;;;;;13.10;71.30;;;12.61;39.02;97326.94;5008505;28;19921;-43
2022/04/18 10:23:15;;;;;;;;;;;13.10;71.60;;;12.67;39.66;97337.28;4990659;28;20641;-41
2022/04/18 10:26:02;;;;;;;;;;;13.10;71.30;;;12.63;39.07;97322.44;5016252;28;19927;-41
2022/04/18 10:28:34;;;;;;;;;;;13.10;71.30;;;12.66;39.86;97317.00;5016605;28;19933;-41
2022/04/18 10:31:01;;;;;;;;;;;13.10;72.50;;;12.75;40.33;97313.09;5014440;28;20432;-42
2022/04/18 10:33:28;;;;;;;;;;;13.20;73.10;;;12.88;39.11;97314.22;4988119;28;19928;-43
2022/04/18 10:35:59;;;;;;;;;;;13.30;70.90;;;12.90;39.36;97308.84;5013048;28;19974;-41
2022/04/18 10:38:26;;;;;;;;;;;13.30;71.20;;;13.05;38.79;97310.78;5006751;28;19921;-42
2022/04/18 10:41:14;;;;;;;;;;;13.40;70.50;;;13.06;39.31;97301.03;5009684;28;19925;-43
2022/04/18 10:44:01;;;;;;;;;;;13.40;70.00;;;13.11;39.60;97307.81;5003156;28;19929;-41
2022/04/18 10:46:28;;;;;;;;;;;13.50;71.00;;;13.28;39.04;97307.00;4999766;28;20130;-41
2022/04/18 10:49:01;;;;;;;;;;;13.60;70.30;;;13.24;38.16;97297.47;5010825;28;19952;-41
2022/04/18 10:51:34;;;;;;;;;;;13.70;68.70;;;13.30;38.74;97309.59;5015222;28;19925;-41
2022/04/18 10:54:16;;;;;;;;;;;13.70;69.30;;;13.35;38.75;97303.16;5013599;28;19921;-41
2022/04/18 10:56:50;;;;;;;;;;;13.80;69.20;;;13.43;37.84;97300.13;5012845;28;19975;-41
2022/04/18 10:59:18;;;;;;;;;;;13.80;67.70;;;13.40;38.04;97305.56;5017964;28;19921;-41
2022/04/18 11:01:43;;;;;;;;;;;13.80;67.70;;;13.45;38.27;97300.88;5010566;28;19921;-41
2022/04/18 11:04:11;;;;;;;;;;;13.90;68.20;;;13.46;37.12;97299.97;5013765;28;20373;-41
2022/04/18 11:06:40;;;;;;;;;;;13.90;67.10;;;13.45;36.73;97305.34;5013648;28;19917;-41
2022/04/18 11:09:09;;;;;;;;;;;13.90;65.60;;;13.44;37.08;97295.66;5011532;28;20384;-42
2022/04/18 11:11:47;;;;;;;;;;;13.90;64.70;;;13.41;37.75;97286.09;5012574;28;20395;-41
2022/04/18 11:14:23;;;;;;;;;;;13.80;66.70;;;13.48;37.54;97276.91;5010335;28;19921;-42
2022/04/18 11:16:52;;;;;;;;;;;13.90;66.70;;;13.49;37.36;97275.09;5015768;28;19987;-41
2022/04/18 11:19:24;;;;;;;;;;;13.90;66.80;;;13.62;38.39;97278.84;5013175;28;19955;-41
2022/04/18 11:21:54;;;;;;;;;;;14.00;67.40;;;13.82;38.32;97276.94;5008526;28;19917;-42
2022/04/18 11:25:00;;;;;;;;;;;14.10;68.70;;;13.83;36.50;97271.56;5012639;28;19964;-41
2022/04/18 11:27:26;;;;;;;;;;;14.20;65.70;;;13.78;37.60;97268.28;5015575;28;20209;-48
2022/04/18 11:29:59;;;;;;;;;;;14.20;66.30;;;13.78;37.30;97273.59;5015140;28;20349;-41
2022/04/18 11:32:27;;;;;;;;;;;14.20;66.70;;;13.75;36.67;97263.19;5009298;28;19924;-41
2022/04/18 11:34:55;;;;;;;;;;;14.20;65.00;;;13.61;37.18;97253.28;5012554;28;19932;-41
2022/04/18 11:37:23;;;;;;;;;;;14.20;65.00;;;13.81;37.76;97267.31;4986333;28;20016;-41
2022/04/18 11:39:50;;;;;;;;;;;14.20;66.50;;;13.87;36.08;97270.50;5010132;28;19975;-42
2022/04/18 11:42:18;;;;;;;;;;;14.20;64.30;;;13.80;36.38;97254.97;4994978;28;19991;-41
2022/04/18 11:44:46;;;;;;;;;;;14.20;63.60;;;13.72;37.35;97256.22;5006650;28;19925;-41
2022/04/18 11:47:14;;;;;;;;;;;14.20;64.60;;;13.68;36.75;97249.38;4991632;28;20003;-41
2022/04/18 11:49:41;;;;;;;;;;;14.10;64.80;;;13.71;37.70;97246.56;5002976;28;19998;-42
2022/04/18 11:52:20;;;;;;;;;;;14.10;64.90;;;13.70;36.87;97236.91;5005801;28;19952;-41